Time;durP1;ratioP1;P1;durP2;ratioP2;P2;SDS_P1;SDS_P2;PMS_P1;PMS_P2;Temp;Humidity;BMP_temperature;BMP_pressure;BME280_temperature;BME280_humidity;BME280_pressure;Samples;Min_cycle;Max_cycle;Signal;HPM_P1;HPM_P2
2020/12/10 00:01:08;;;;;;;16.25;9.70;;;;;;;;;;5025345;28;20183;-74
2020/12/10 00:03:34;;;;;;;22.02;10.65;;;;;;;;;;5024751;28;20206;-75
2020/12/10 00:06:00;;;;;;;16.48;10.35;;;;;;;;;;5024490;28;20185;-74
2020/12/10 00:08:26;;;;;;;15.85;10.55;;;;;;;;;;5040079;28;20244;-74
2020/12/10 00:10:52;;;;;;;15.75;9.88;;;;;;;;;;5023533;28;20237;-74
2020/12/10 00:13:18;;;;;;;16.13;10.90;;;;;;;;;;5032787;28;20183;-74
2020/12/10 00:15:44;;;;;;;15.30;8.55;;;;;;;;;;5020357;28;20480;-74
2020/12/10 00:18:10;;;;;;;17.73;10.50;;;;;;;;;;5023945;28;20202;-74
2020/12/10 00:20:36;;;;;;;17.38;9.65;;;;;;;;;;5040126;28;20682;-74
2020/12/10 00:23:02;;;;;;;23.05;11.50;;;;;;;;;;5039420;28;20206;-74
2020/12/10 00:25:28;;;;;;;15.25;9.75;;;;;;;;;;5015643;28;20193;-74
2020/12/10 00:27:54;;;;;;;21.50;11.43;;;;;;;;;;5022749;28;20186;-74
2020/12/10 00:30:20;;;;;;;14.60;9.63;;;;;;;;;;5023145;28;20196;-74
2020/12/10 00:32:46;;;;;;;20.73;10.60;;;;;;;;;;5024362;28;20186;-74
2020/12/10 00:35:12;;;;;;;18.08;10.40;;;;;;;;;;5024379;28;20265;-74
2020/12/10 00:37:39;;;;;;;22.55;11.90;;;;;;;;;;5022679;28;20699;-74
2020/12/10 00:40:06;;;;;;;20.13;10.32;;;;;;;;;;5022975;28;20186;-74
2020/12/10 00:42:32;;;;;;;19.75;10.70;;;;;;;;;;5023709;28;20705;-74
2020/12/10 00:44:58;;;;;;;18.15;10.38;;;;;;;;;;5019340;28;20179;-74
2020/12/10 00:47:23;;;;;;;15.50;9.13;;;;;;;;;;5031754;28;20193;-74
2020/12/10 00:49:49;;;;;;;23.23;10.40;;;;;;;;;;5015195;28;20183;-74
2020/12/10 00:52:15;;;;;;;16.40;9.88;;;;;;;;;;5023172;28;20406;-74
2020/12/10 00:54:42;;;;;;;15.35;9.82;;;;;;;;;;5024533;28;20291;-75
2020/12/10 00:57:09;;;;;;;19.80;10.88;;;;;;;;;;5039888;28;20187;-74
2020/12/10 00:59:35;;;;;;;15.10;9.45;;;;;;;;;;5023739;28;20185;-74
2020/12/10 01:02:01;;;;;;;14.20;9.35;;;;;;;;;;5022032;28;20178;-75
2020/12/10 01:04:27;;;;;;;18.70;9.27;;;;;;;;;;5019230;28;20206;-74
2020/12/10 01:06:53;;;;;;;15.37;8.90;;;;;;;;;;5019763;28;20435;-74
2020/12/10 01:09:19;;;;;;;17.00;9.27;;;;;;;;;;5022467;28;20873;-75
2020/12/10 01:11:45;;;;;;;19.20;9.65;;;;;;;;;;5024145;28;20193;-75
2020/12/10 01:14:13;;;;;;;19.55;8.15;;;;;;;;;;5013181;28;20187;-75
2020/12/10 01:16:38;;;;;;;15.30;9.57;;;;;;;;;;5022736;28;20677;-74
2020/12/10 01:19:04;;;;;;;15.65;8.15;;;;;;;;;;5017180;28;20200;-74
2020/12/10 01:21:31;;;;;;;14.85;9.07;;;;;;;;;;5023684;28;20453;-74
2020/12/10 01:23:59;;;;;;;13.63;7.20;;;;;;;;;;5023619;28;20276;-74
2020/12/10 01:26:28;;;;;;;16.70;9.82;;;;;;;;;;5023292;28;20178;-74
2020/12/10 01:28:54;;;;;;;14.23;8.32;;;;;;;;;;5022581;28;20653;-74
2020/12/10 01:31:19;;;;;;;15.13;8.83;;;;;;;;;;5024774;28;20182;-74
2020/12/10 01:33:46;;;;;;;11.25;7.10;;;;;;;;;;5027169;28;20421;-74
2020/12/10 01:36:18;;;;;;;15.13;7.93;;;;;;;;;;5027440;28;20643;-74
2020/12/10 01:38:44;;;;;;;13.85;7.28;;;;;;;;;;5025156;28;20735;-74
2020/12/10 01:41:11;;;;;;;12.23;7.80;;;;;;;;;;5037521;28;20270;-74
2020/12/10 01:43:37;;;;;;;12.77;6.45;;;;;;;;;;5025073;28;20202;-74
2020/12/10 01:46:03;;;;;;;11.93;6.53;;;;;;;;;;5010230;28;20265;-74
2020/12/10 01:48:30;;;;;;;11.25;6.68;;;;;;;;;;5021982;28;20171;-74
2020/12/10 01:53:31;;;;;;;10.65;6.70;;;;;;;;;;5587314;23;20393;-79
2020/12/10 01:55:58;;;;;;;11.48;6.25;;;;;;;;;;5021293;28;20217;-82
2020/12/10 01:58:24;;;;;;;9.88;5.72;;;;;;;;;;5024217;28;20432;-82
2020/12/10 02:00:53;;;;;;;11.98;6.20;;;;;;;;;;5024455;28;20328;-82
2020/12/10 02:03:19;;;;;;;12.05;6.20;;;;;;;;;;5027155;28;20206;-82
2020/12/10 02:05:46;;;;;;;9.88;6.05;;;;;;;;;;5021815;28;20188;-82
2020/12/10 02:08:12;;;;;;;10.55;6.50;;;;;;;;;;5019968;28;20194;-79
2020/12/10 02:10:38;;;;;;;9.68;5.80;;;;;;;;;;5023959;28;20186;-81
2020/12/10 02:13:04;;;;;;;11.70;6.60;;;;;;;;;;5036094;28;20205;-82
2020/12/10 02:15:33;;;;;;;12.88;6.18;;;;;;;;;;5021280;28;20643;-81
2020/12/10 02:18:00;;;;;;;7.20;5.97;;;;;;;;;;5036098;28;20779;-82
2020/12/10 02:20:26;;;;;;;10.85;5.30;;;;;;;;;;5022511;28;20187;-82
2020/12/10 02:22:59;;;;;;;13.43;6.00;;;;;;;;;;5037224;28;20970;-82
2020/12/10 02:25:25;;;;;;;11.50;6.78;;;;;;;;;;5005133;28;20198;-83
2020/12/10 02:27:50;;;;;;;9.05;5.55;;;;;;;;;;5022835;28;20187;-81
2020/12/10 02:30:16;;;;;;;9.82;5.32;;;;;;;;;;5024346;28;20213;-81
2020/12/10 02:32:42;;;;;;;10.32;5.68;;;;;;;;;;5016364;28;20190;-82
2020/12/10 02:35:08;;;;;;;13.43;6.18;;;;;;;;;;5016551;28;20191;-82
2020/12/10 02:37:34;;;;;;;9.60;5.15;;;;;;;;;;5023977;28;20182;-81
2020/12/10 02:40:00;;;;;;;7.27;5.53;;;;;;;;;;5024265;28;20186;-82
2020/12/10 02:42:26;;;;;;;9.73;5.88;;;;;;;;;;5021417;28;20941;-83
2020/12/10 02:44:52;;;;;;;9.50;5.45;;;;;;;;;;5024457;28;20209;-82
2020/12/10 02:47:19;;;;;;;11.55;6.15;;;;;;;;;;5025899;28;20197;-82
2020/12/10 02:49:46;;;;;;;7.15;4.80;;;;;;;;;;5033989;28;20554;-82
2020/12/10 02:52:12;;;;;;;9.27;6.28;;;;;;;;;;5024887;28;20182;-81
2020/12/10 02:54:38;;;;;;;6.65;4.68;;;;;;;;;;5019655;28;20226;-81
2020/12/10 02:57:04;;;;;;;11.52;4.88;;;;;;;;;;5024343;28;20210;-82
2020/12/10 02:59:30;;;;;;;9.03;4.87;;;;;;;;;;5015203;28;20187;-82
2020/12/10 03:01:56;;;;;;;10.18;5.35;;;;;;;;;;5024601;28;20437;-82
2020/12/10 03:04:22;;;;;;;14.75;6.35;;;;;;;;;;5023268;28;20202;-82
2020/12/10 03:06:48;;;;;;;15.05;5.32;;;;;;;;;;5019071;28;20197;-82
2020/12/10 03:09:13;;;;;;;11.98;5.57;;;;;;;;;;5023658;28;20209;-80
2020/12/10 03:11:39;;;;;;;8.95;4.25;;;;;;;;;;5015311;28;20178;-82
2020/12/10 03:14:05;;;;;;;9.60;5.07;;;;;;;;;;5034025;28;20187;-82
2020/12/10 03:16:31;;;;;;;9.20;5.00;;;;;;;;;;5024196;28;20433;-82
2020/12/10 03:18:57;;;;;;;7.30;5.55;;;;;;;;;;5017364;28;20489;-82
2020/12/10 03:21:23;;;;;;;11.27;4.90;;;;;;;;;;5024441;28;20265;-82
2020/12/10 03:23:49;;;;;;;12.23;6.13;;;;;;;;;;5014558;28;20217;-82
2020/12/10 03:26:15;;;;;;;14.60;5.07;;;;;;;;;;5019170;28;20526;-82
2020/12/10 03:28:41;;;;;;;11.82;5.68;;;;;;;;;;5018687;28;20193;-82
2020/12/10 03:31:07;;;;;;;7.78;4.75;;;;;;;;;;5020897;28;20242;-82
2020/12/10 03:33:33;;;;;;;18.65;5.72;;;;;;;;;;5022746;28;20198;-81
2020/12/10 03:35:59;;;;;;;8.43;4.93;;;;;;;;;;5023541;28;20178;-83
2020/12/10 03:38:25;;;;;;;5.20;4.70;;;;;;;;;;5014510;28;20449;-82
2020/12/10 03:40:51;;;;;;;12.73;4.83;;;;;;;;;;5021846;28;20468;-82
2020/12/10 03:43:17;;;;;;;9.70;4.38;;;;;;;;;;5020895;28;20468;-81
2020/12/10 03:45:43;;;;;;;7.63;4.43;;;;;;;;;;5019562;28;20194;-82
2020/12/10 03:48:09;;;;;;;9.40;4.50;;;;;;;;;;5039122;28;20193;-82
2020/12/10 03:50:35;;;;;;;9.98;4.20;;;;;;;;;;5024226;28;20298;-82
2020/12/10 03:53:01;;;;;;;8.13;5.20;;;;;;;;;;5022093;28;20745;-82
2020/12/10 03:55:27;;;;;;;12.48;5.07;;;;;;;;;;5021744;28;20222;-82
2020/12/10 03:57:53;;;;;;;14.13;4.03;;;;;;;;;;5017444;28;20206;-81
2020/12/10 04:00:20;;;;;;;8.15;4.30;;;;;;;;;;5023215;28;20187;-83
2020/12/10 04:02:46;;;;;;;8.23;4.80;;;;;;;;;;5026766;28;20209;-83
2020/12/10 04:05:12;;;;;;;6.13;4.45;;;;;;;;;;5041531;28;20190;-81
2020/12/10 04:07:38;;;;;;;9.98;4.60;;;;;;;;;;5021739;28;20186;-81
2020/12/10 04:10:05;;;;;;;8.60;3.80;;;;;;;;;;5019314;28;20281;-81
2020/12/10 04:12:30;;;;;;;13.40;4.72;;;;;;;;;;5018617;28;20178;-81
2020/12/10 04:14:57;;;;;;;6.68;4.15;;;;;;;;;;5019772;28;20171;-82
2020/12/10 04:17:23;;;;;;;13.77;4.37;;;;;;;;;;5016032;28;20235;-82
2020/12/10 04:19:49;;;;;;;7.28;4.10;;;;;;;;;;5020465;28;20472;-82
2020/12/10 04:22:15;;;;;;;7.38;3.95;;;;;;;;;;5002782;28;20183;-83
2020/12/10 04:24:42;;;;;;;13.20;5.25;;;;;;;;;;5023533;28;20259;-83
2020/12/10 04:27:08;;;;;;;8.80;4.82;;;;;;;;;;5019927;28;20177;-83
2020/12/10 04:29:34;;;;;;;11.63;4.20;;;;;;;;;;5013360;28;20182;-82
2020/12/10 04:32:00;;;;;;;13.47;4.37;;;;;;;;;;5034845;28;20189;-83
2020/12/10 04:34:26;;;;;;;7.40;4.80;;;;;;;;;;5020743;28;20957;-82
2020/12/10 04:36:54;;;;;;;8.32;4.18;;;;;;;;;;5016554;28;20187;-82
2020/12/10 04:39:20;;;;;;;9.35;3.60;;;;;;;;;;5024011;28;20182;-82
2020/12/10 04:41:47;;;;;;;5.53;3.60;;;;;;;;;;5022871;28;20193;-82
2020/12/10 04:44:13;;;;;;;7.43;4.78;;;;;;;;;;5016493;28;20780;-80
2020/12/10 04:46:40;;;;;;;8.18;4.47;;;;;;;;;;5027957;28;20453;-81
2020/12/10 04:49:06;;;;;;;8.88;4.55;;;;;;;;;;5022753;28;20194;-82
2020/12/10 04:51:35;;;;;;;7.30;3.92;;;;;;;;;;5034542;28;20603;-82
2020/12/10 04:54:03;;;;;;;11.27;4.20;;;;;;;;;;5018596;28;20300;-82
2020/12/10 04:56:29;;;;;;;16.90;4.07;;;;;;;;;;5013697;28;20187;-83
2020/12/10 04:58:55;;;;;;;7.80;3.30;;;;;;;;;;5017700;28;20194;-83
2020/12/10 05:01:22;;;;;;;8.38;3.75;;;;;;;;;;5018980;28;20645;-82
2020/12/10 05:03:48;;;;;;;6.57;3.30;;;;;;;;;;5023069;28;20202;-82
2020/12/10 05:06:15;;;;;;;8.65;3.67;;;;;;;;;;5023235;28;20167;-82
2020/12/10 05:08:41;;;;;;;7.25;3.38;;;;;;;;;;5012962;28;20183;-83
2020/12/10 05:11:09;;;;;;;9.68;3.55;;;;;;;;;;5022378;28;20190;-84
2020/12/10 05:13:36;;;;;;;10.57;3.40;;;;;;;;;;5021991;28;20189;-83
2020/12/10 05:16:02;;;;;;;5.47;3.63;;;;;;;;;;5020696;28;20340;-82
2020/12/10 05:18:28;;;;;;;17.10;3.55;;;;;;;;;;5022121;28;20174;-83
2020/12/10 05:20:56;;;;;;;7.30;3.90;;;;;;;;;;5011874;28;20278;-82
2020/12/10 05:23:39;;;;;;;12.25;3.58;;;;;;;;;;5015857;28;20207;-82
2020/12/10 05:26:06;;;;;;;8.70;3.80;;;;;;;;;;5016184;28;20655;-83
2020/12/10 05:28:41;;;;;;;8.13;3.80;;;;;;;;;;5020873;28;20277;-81
2020/12/10 05:31:08;;;;;;;5.53;3.05;;;;;;;;;;5016726;28;20216;-82
2020/12/10 05:33:34;;;;;;;8.90;3.58;;;;;;;;;;5021982;28;20179;-81
2020/12/10 05:36:04;;;;;;;8.82;3.50;;;;;;;;;;5018017;28;20175;-82
2020/12/10 05:38:30;;;;;;;7.53;4.22;;;;;;;;;;5004651;28;20225;-83
2020/12/10 05:41:14;;;;;;;7.32;3.10;;;;;;;;;;5021363;28;20186;-81
2020/12/10 05:43:40;;;;;;;11.02;3.05;;;;;;;;;;5010706;28;20256;-82
2020/12/10 05:46:13;;;;;;;8.43;3.97;;;;;;;;;;5022468;28;20273;-83
2020/12/10 05:48:39;;;;;;;3.67;2.78;;;;;;;;;;5020951;28;20224;-81
2020/12/10 05:51:05;;;;;;;6.78;3.95;;;;;;;;;;5021171;28;20179;-83
2020/12/10 05:53:33;;;;;;;7.63;3.92;;;;;;;;;;5017100;28;20233;-83
2020/12/10 05:56:02;;;;;;;7.03;3.17;;;;;;;;;;5019235;28;20187;-82
2020/12/10 05:58:30;;;;;;;7.50;4.18;;;;;;;;;;5018211;28;20210;-83
2020/12/10 06:00:56;;;;;;;7.20;3.50;;;;;;;;;;5020361;28;20175;-83
2020/12/10 06:03:22;;;;;;;9.02;3.75;;;;;;;;;;5016699;28;20209;-82
2020/12/10 06:05:49;;;;;;;10.75;3.78;;;;;;;;;;5015582;28;20261;-82
2020/12/10 06:08:15;;;;;;;9.00;4.10;;;;;;;;;;5021158;28;20273;-82
2020/12/10 06:10:42;;;;;;;5.95;3.20;;;;;;;;;;5017767;28;20193;-81
2020/12/10 06:13:08;;;;;;;15.32;3.17;;;;;;;;;;5022208;28;20192;-80
2020/12/10 06:15:34;;;;;;;12.05;4.03;;;;;;;;;;5021380;28;20290;-80
2020/12/10 06:18:10;;;;;;;5.55;3.30;;;;;;;;;;5018187;28;20170;-80
2020/12/10 06:20:45;;;;;;;3.95;2.88;;;;;;;;;;5020191;28;20239;-81
2020/12/10 06:23:23;;;;;;;4.47;2.97;;;;;;;;;;5013871;28;20207;-81
2020/12/10 06:25:53;;;;;;;6.80;3.17;;;;;;;;;;5012833;28;20193;-81
2020/12/10 06:28:19;;;;;;;6.95;3.60;;;;;;;;;;5021304;28;20183;-79
2020/12/10 06:31:04;;;;;;;6.40;3.45;;;;;;;;;;5024020;28;20174;-80
2020/12/10 06:33:40;;;;;;;6.85;3.30;;;;;;;;;;5021387;28;20182;-81
2020/12/10 06:36:22;;;;;;;6.45;3.60;;;;;;;;;;5017292;28;20182;-81
2020/12/10 06:38:49;;;;;;;6.75;3.58;;;;;;;;;;5012675;28;20210;-82
2020/12/10 06:41:14;;;;;;;7.22;4.00;;;;;;;;;;5018617;28;20216;-81
2020/12/10 06:43:40;;;;;;;5.75;3.45;;;;;;;;;;5023694;28;20266;-80
2020/12/10 06:46:06;;;;;;;8.87;4.07;;;;;;;;;;5025004;28;20187;-81
2020/12/10 06:48:47;;;;;;;8.13;4.10;;;;;;;;;;5019266;28;20418;-81
2020/12/10 06:51:21;;;;;;;7.15;3.47;;;;;;;;;;5023033;28;20182;-81
2020/12/10 06:54:04;;;;;;;10.93;3.70;;;;;;;;;;5020074;28;20218;-81
2020/12/10 06:56:50;;;;;;;8.00;3.92;;;;;;;;;;5019595;28;20214;-81
2020/12/10 06:59:16;;;;;;;5.15;4.13;;;;;;;;;;5014740;28;20191;-80
2020/12/10 07:01:42;;;;;;;7.15;3.92;;;;;;;;;;5024142;28;20265;-82
2020/12/10 07:04:30;;;;;;;11.32;4.47;;;;;;;;;;5023984;28;20217;-81
2020/12/10 07:07:16;;;;;;;10.20;4.90;;;;;;;;;;5023889;28;20198;-81
2020/12/10 07:10:01;;;;;;;9.35;4.22;;;;;;;;;;5022492;28;20185;-81
2020/12/10 07:12:32;;;;;;;11.32;4.65;;;;;;;;;;5021675;28;20171;-81
2020/12/10 07:15:11;;;;;;;7.20;4.00;;;;;;;;;;5018836;28;20179;-81
2020/12/10 07:17:37;;;;;;;7.30;4.32;;;;;;;;;;5023368;28;20179;-81
2020/12/10 07:20:03;;;;;;;7.67;4.43;;;;;;;;;;5039891;28;20618;-80
2020/12/10 07:22:29;;;;;;;7.78;3.58;;;;;;;;;;5020872;28;20540;-81
2020/12/10 07:24:55;;;;;;;8.47;4.27;;;;;;;;;;5016386;28;20210;-80
2020/12/10 07:27:21;;;;;;;5.82;3.58;;;;;;;;;;5019161;28;20449;-80
2020/12/10 07:29:51;;;;;;;7.97;4.13;;;;;;;;;;5024103;28;20189;-81
2020/12/10 07:32:17;;;;;;;10.68;6.28;;;;;;;;;;5018201;28;20546;-81
2020/12/10 07:34:44;;;;;;;5.13;4.00;;;;;;;;;;5023515;28;20178;-81
2020/12/10 07:37:13;;;;;;;7.55;4.25;;;;;;;;;;5020782;28;20250;-82
2020/12/10 07:39:39;;;;;;;6.30;3.33;;;;;;;;;;5035454;28;20746;-82
2020/12/10 07:42:18;;;;;;;7.30;4.10;;;;;;;;;;5024762;28;20175;-82
2020/12/10 07:44:44;;;;;;;7.63;4.00;;;;;;;;;;5014227;28;20237;-80
2020/12/10 07:47:11;;;;;;;6.87;3.73;;;;;;;;;;5011857;28;20229;-81
2020/12/10 07:49:37;;;;;;;4.68;4.00;;;;;;;;;;5018788;28;20972;-80
2020/12/10 07:52:04;;;;;;;6.63;4.10;;;;;;;;;;5022197;28;20249;-80
2020/12/10 07:54:51;;;;;;;7.57;4.07;;;;;;;;;;5018140;28;20218;-81
2020/12/10 07:57:39;;;;;;;6.13;3.88;;;;;;;;;;5020433;28;20184;-79
2020/12/10 08:00:06;;;;;;;7.22;4.22;;;;;;;;;;5018470;28;20682;-81
2020/12/10 08:02:53;;;;;;;11.05;4.55;;;;;;;;;;5020891;28;20453;-81
2020/12/10 08:05:19;;;;;;;8.00;4.30;;;;;;;;;;5027887;28;20178;-80
2020/12/10 08:07:50;;;;;;;6.18;4.03;;;;;;;;;;5019488;28;20198;-81
2020/12/10 08:10:19;;;;;;;7.32;4.15;;;;;;;;;;5017980;28;20187;-82
2020/12/10 08:12:45;;;;;;;7.15;3.90;;;;;;;;;;5019934;28;20659;-82
2020/12/10 08:15:20;;;;;;;4.00;3.60;;;;;;;;;;5017138;28;20186;-81
2020/12/10 08:17:46;;;;;;;7.75;3.70;;;;;;;;;;5033608;28;20246;-81
2020/12/10 08:20:12;;;;;;;4.23;3.03;;;;;;;;;;5009311;28;20189;-81
2020/12/10 08:22:40;;;;;;;6.88;3.80;;;;;;;;;;5018655;28;20426;-82
2020/12/10 08:25:15;;;;;;;7.90;4.57;;;;;;;;;;5015432;28;20345;-81
2020/12/10 08:27:41;;;;;;;6.40;3.50;;;;;;;;;;5010526;28;20410;-84
2020/12/10 08:30:10;;;;;;;7.18;3.60;;;;;;;;;;5016608;28;20189;-82
2020/12/10 08:32:36;;;;;;;4.28;3.72;;;;;;;;;;5018619;28;20193;-83
2020/12/10 08:35:06;;;;;;;5.68;4.18;;;;;;;;;;5014952;28;20210;-83
2020/12/10 08:37:39;;;;;;;11.95;4.28;;;;;;;;;;5033537;28;20263;-82
2020/12/10 08:40:05;;;;;;;7.18;3.78;;;;;;;;;;5007172;28;20210;-83
2020/12/10 08:42:33;;;;;;;6.60;4.13;;;;;;;;;;5023027;28;20261;-78
2020/12/10 08:44:59;;;;;;;10.00;4.15;;;;;;;;;;5022805;28;20170;-83
2020/12/10 08:47:26;;;;;;;8.75;3.70;;;;;;;;;;5017861;28;20271;-84
2020/12/10 08:50:27;;;;;;;8.55;3.75;;;;;;;;;;5022274;28;20236;-82
2020/12/10 08:52:59;;;;;;;6.25;3.70;;;;;;;;;;5019276;28;20214;-81
2020/12/10 08:55:35;;;;;;;8.55;4.25;;;;;;;;;;5032097;28;20222;-82
2020/12/10 08:58:01;;;;;;;7.22;3.92;;;;;;;;;;5012343;28;20186;-83
2020/12/10 09:00:27;;;;;;;17.08;4.40;;;;;;;;;;5022188;28;20555;-81
2020/12/10 09:02:53;;;;;;;12.93;4.60;;;;;;;;;;5016481;28;20230;-80
2020/12/10 09:05:19;;;;;;;9.90;5.43;;;;;;;;;;5015599;28;20195;-82
2020/12/10 09:07:46;;;;;;;8.90;4.03;;;;;;;;;;5019790;28;20445;-80
2020/12/10 09:10:16;;;;;;;11.27;5.20;;;;;;;;;;5012031;28;20451;-80
2020/12/10 09:12:42;;;;;;;10.35;5.13;;;;;;;;;;5019057;28;20894;-83
2020/12/10 09:15:08;;;;;;;7.63;4.82;;;;;;;;;;5023469;28;20245;-81
2020/12/10 09:17:34;;;;;;;5.28;4.63;;;;;;;;;;5015748;28;20225;-80
2020/12/10 09:20:01;;;;;;;8.77;4.75;;;;;;;;;;5020029;28;20183;-82
2020/12/10 09:22:27;;;;;;;14.15;4.60;;;;;;;;;;5019881;28;20197;-81
2020/12/10 09:24:55;;;;;;;7.88;3.50;;;;;;;;;;5018100;28;20206;-81
2020/12/10 09:27:21;;;;;;;6.63;4.53;;;;;;;;;;5016990;28;20175;-79
2020/12/10 09:29:48;;;;;;;4.72;3.33;;;;;;;;;;5017238;28;20205;-82
2020/12/10 09:32:14;;;;;;;7.47;4.57;;;;;;;;;;5017425;28;20183;-81
2020/12/10 09:34:40;;;;;;;5.90;4.72;;;;;;;;;;5017927;28;20286;-80
2020/12/10 09:37:06;;;;;;;9.53;4.60;;;;;;;;;;5020590;28;20194;-81
2020/12/10 09:39:34;;;;;;;8.55;4.28;;;;;;;;;;5021582;28;20444;-80
2020/12/10 09:42:03;;;;;;;6.65;3.92;;;;;;;;;;5022370;28;20242;-81
2020/12/10 09:44:30;;;;;;;10.10;4.40;;;;;;;;;;5017177;28;20277;-82
2020/12/10 09:46:56;;;;;;;9.02;4.93;;;;;;;;;;5018042;28;20515;-80
2020/12/10 09:49:22;;;;;;;8.35;5.32;;;;;;;;;;5015176;28;20231;-81
2020/12/10 09:51:52;;;;;;;10.73;5.22;;;;;;;;;;5020854;28;20204;-80
2020/12/10 09:59:37;;;;;;;8.75;3.85;;;;;;;;;;5025840;28;20197;-81
2020/12/10 10:02:05;;;;;;;4.60;4.10;;;;;;;;;;5022288;28;20191;-81
2020/12/10 10:04:31;;;;;;;4.28;3.85;;;;;;;;;;5022478;28;20216;-80
2020/12/10 10:06:57;;;;;;;8.52;4.88;;;;;;;;;;5017295;28;20193;-81
2020/12/10 10:09:25;;;;;;;6.07;4.82;;;;;;;;;;5024330;28;20286;-80
2020/12/10 10:11:52;;;;;;;8.02;4.80;;;;;;;;;;5021269;28;20182;-82
2020/12/10 10:14:19;;;;;;;5.03;4.60;;;;;;;;;;5025712;28;20194;-81
2020/12/10 10:16:45;;;;;;;9.00;4.60;;;;;;;;;;5026075;28;20194;-81
2020/12/10 10:19:13;;;;;;;12.35;4.65;;;;;;;;;;5022550;28;20182;-80
2020/12/10 10:21:39;;;;;;;6.68;4.25;;;;;;;;;;5016314;28;20179;-81
2020/12/10 10:24:05;;;;;;;7.88;4.68;;;;;;;;;;5021350;28;20570;-81
2020/12/10 10:26:32;;;;;;;8.52;3.50;;;;;;;;;;5017399;28;20226;-80
2020/12/10 10:29:07;;;;;;;4.85;3.45;;;;;;;;;;5022322;28;20206;-82
2020/12/10 10:31:37;;;;;;;6.75;4.15;;;;;;;;;;5018195;28;20222;-80
2020/12/10 10:34:03;;;;;;;6.38;4.00;;;;;;;;;;5018816;28;20186;-80
2020/12/10 10:36:29;;;;;;;5.63;3.83;;;;;;;;;;5011617;28;20186;-83
2020/12/10 10:38:54;;;;;;;10.15;3.95;;;;;;;;;;5019871;28;20555;-81
2020/12/10 10:41:21;;;;;;;5.83;4.30;;;;;;;;;;5018707;28;20184;-81
2020/12/10 10:44:01;;;;;;;5.05;3.85;;;;;;;;;;5017697;28;20468;-81
2020/12/10 10:46:27;;;;;;;10.30;4.18;;;;;;;;;;5016241;28;20668;-82
2020/12/10 10:48:53;;;;;;;8.63;4.43;;;;;;;;;;5018015;28;20681;-80
2020/12/10 10:51:21;;;;;;;7.75;4.38;;;;;;;;;;5022658;28;20179;-81
2020/12/10 10:53:47;;;;;;;4.05;3.50;;;;;;;;;;5016660;28;20302;-81
2020/12/10 10:56:13;;;;;;;8.83;3.73;;;;;;;;;;5023515;28;20225;-80
2020/12/10 10:58:39;;;;;;;8.88;4.53;;;;;;;;;;5013478;28;20444;-81
2020/12/10 11:01:05;;;;;;;7.57;4.30;;;;;;;;;;5022207;28;20249;-83
2020/12/10 11:03:31;;;;;;;5.03;3.40;;;;;;;;;;5023513;28;20218;-80
2020/12/10 11:05:57;;;;;;;6.65;3.65;;;;;;;;;;5032198;28;20243;-81
2020/12/10 11:08:23;;;;;;;6.57;3.70;;;;;;;;;;5017908;28;20186;-81
2020/12/10 11:10:49;;;;;;;6.35;3.83;;;;;;;;;;5024355;28;20223;-80
2020/12/10 11:13:35;;;;;;;12.37;4.07;;;;;;;;;;5025274;28;20218;-81
2020/12/10 11:16:01;;;;;;;3.45;3.10;;;;;;;;;;5023419;28;20441;-81
2020/12/10 11:18:27;;;;;;;5.40;2.90;;;;;;;;;;5023979;28;20613;-81
2020/12/10 11:21:15;;;;;;;5.43;3.78;;;;;;;;;;5017669;28;20190;-81
2020/12/10 11:23:42;;;;;;;4.30;3.30;;;;;;;;;;5016674;28;20222;-81
2020/12/10 11:26:31;;;;;;;6.20;3.05;;;;;;;;;;5040207;28;20186;-82
2020/12/10 11:29:17;;;;;;;5.68;3.53;;;;;;;;;;5016010;28;20188;-81
2020/12/10 11:31:43;;;;;;;4.37;3.80;;;;;;;;;;5024253;28;20212;-81
2020/12/10 11:34:09;;;;;;;4.28;3.72;;;;;;;;;;5024067;28;20444;-80
2020/12/10 11:36:35;;;;;;;9.37;3.97;;;;;;;;;;5019388;28;20641;-79
2020/12/10 11:39:01;;;;;;;5.22;3.40;;;;;;;;;;5020972;28;20441;-82
2020/12/10 11:41:52;;;;;;;5.37;3.40;;;;;;;;;;5011979;28;20191;-81
2020/12/10 11:44:18;;;;;;;8.32;4.15;;;;;;;;;;5014958;28;20467;-81
2020/12/10 11:46:46;;;;;;;4.40;3.47;;;;;;;;;;5023538;28;20306;-81
2020/12/10 11:49:12;;;;;;;5.68;3.70;;;;;;;;;;5018846;28;20281;-82
2020/12/10 11:51:39;;;;;;;7.30;4.40;;;;;;;;;;5023167;28;20177;-83
2020/12/10 11:54:05;;;;;;;5.47;4.05;;;;;;;;;;5021769;28;20230;-82
2020/12/10 11:56:31;;;;;;;7.25;6.05;;;;;;;;;;5019127;28;20190;-82
2020/12/10 11:58:57;;;;;;;9.35;4.32;;;;;;;;;;5017294;28;21165;-81
2020/12/10 12:01:25;;;;;;;7.05;4.05;;;;;;;;;;5017105;28;20195;-82
2020/12/10 12:03:52;;;;;;;5.45;3.80;;;;;;;;;;5037179;28;20206;-82
2020/12/10 12:06:18;;;;;;;4.10;3.60;;;;;;;;;;5023574;28;20174;-82
2020/12/10 12:08:45;;;;;;;6.78;3.85;;;;;;;;;;5018387;28;20202;-82
2020/12/10 12:11:11;;;;;;;3.40;3.00;;;;;;;;;;5040387;28;20763;-83
2020/12/10 12:13:37;;;;;;;4.85;3.60;;;;;;;;;;5022283;28;20198;-82
2020/12/10 12:16:03;;;;;;;4.37;3.70;;;;;;;;;;5022115;28;20201;-80
2020/12/10 12:18:29;;;;;;;4.05;3.30;;;;;;;;;;5023263;28;20433;-82
2020/12/10 12:20:55;;;;;;;4.70;3.67;;;;;;;;;;5012780;28;20221;-81
2020/12/10 12:23:41;;;;;;;4.35;3.67;;;;;;;;;;5013329;28;20656;-81
2020/12/10 12:26:08;;;;;;;6.17;3.07;;;;;;;;;;5019809;28;20242;-82
2020/12/10 12:28:35;;;;;;;3.28;2.97;;;;;;;;;;5004496;28;20516;-83
2020/12/10 12:31:05;;;;;;;5.93;3.60;;;;;;;;;;5016340;28;20193;-81
2020/12/10 12:33:31;;;;;;;9.07;4.35;;;;;;;;;;5018653;28;20190;-81
2020/12/10 12:35:57;;;;;;;7.05;3.67;;;;;;;;;;5015345;28;20193;-82
2020/12/10 12:38:23;;;;;;;4.53;2.92;;;;;;;;;;5018034;28;20194;-81
2020/12/10 12:40:49;;;;;;;6.13;3.00;;;;;;;;;;5021096;28;20209;-82
2020/12/10 12:43:35;;;;;;;4.00;2.70;;;;;;;;;;5015906;28;20209;-83
2020/12/10 12:46:00;;;;;;;7.30;3.23;;;;;;;;;;5017518;28;20178;-81
2020/12/10 12:48:27;;;;;;;3.70;3.15;;;;;;;;;;5012356;28;20510;-82
2020/12/10 12:50:53;;;;;;;3.25;2.83;;;;;;;;;;5020886;28;20194;-81
2020/12/10 12:53:19;;;;;;;3.92;3.10;;;;;;;;;;5018126;28;20195;-82
2020/12/10 12:55:45;;;;;;;3.72;2.80;;;;;;;;;;5023332;28;20190;-83
2020/12/10 12:58:11;;;;;;;4.00;3.45;;;;;;;;;;5021537;28;20197;-82
2020/12/10 13:00:37;;;;;;;5.85;3.42;;;;;;;;;;5021110;28;20179;-81
2020/12/10 13:03:04;;;;;;;7.23;3.20;;;;;;;;;;5015556;28;20573;-82
2020/12/10 13:05:30;;;;;;;3.00;2.60;;;;;;;;;;5014069;28;20449;-80
2020/12/10 13:07:56;;;;;;;3.28;2.97;;;;;;;;;;5017625;28;20221;-82
2020/12/10 13:10:30;;;;;;;3.13;2.72;;;;;;;;;;5015696;28;20175;-80
2020/12/10 13:12:56;;;;;;;2.95;2.58;;;;;;;;;;5000734;28;20225;-81
2020/12/10 13:15:22;;;;;;;5.60;3.30;;;;;;;;;;5014044;28;20174;-82
2020/12/10 13:17:48;;;;;;;4.20;2.63;;;;;;;;;;5020950;28;20437;-83
2020/12/10 13:20:14;;;;;;;3.80;3.10;;;;;;;;;;5017524;28;20186;-82
2020/12/10 13:22:41;;;;;;;4.87;3.07;;;;;;;;;;5017377;28;20183;-81
2020/12/10 13:25:07;;;;;;;3.15;2.50;;;;;;;;;;5021728;28;20445;-81
2020/12/10 13:27:33;;;;;;;3.80;2.67;;;;;;;;;;5026099;28;20181;-80
2020/12/10 13:30:12;;;;;;;7.13;3.13;;;;;;;;;;5021686;28;20180;-82
2020/12/10 13:32:38;;;;;;;3.78;2.60;;;;;;;;;;5026577;28;20189;-82
2020/12/10 13:35:05;;;;;;;5.95;3.10;;;;;;;;;;5021305;28;20183;-83
2020/12/10 13:37:31;;;;;;;4.70;2.75;;;;;;;;;;5025622;28;20194;-84
2020/12/10 13:39:57;;;;;;;3.60;2.73;;;;;;;;;;5026698;28;20197;-80
2020/12/10 13:42:38;;;;;;;3.40;2.80;;;;;;;;;;5023554;28;20425;-83
2020/12/10 13:45:05;;;;;;;4.30;2.60;;;;;;;;;;5023206;28;20663;-83
2020/12/10 13:47:31;;;;;;;3.28;2.58;;;;;;;;;;5022395;28;20187;-83
2020/12/10 13:49:59;;;;;;;4.53;2.67;;;;;;;;;;5022378;28;20253;-83
2020/12/10 13:52:28;;;;;;;3.53;2.38;;;;;;;;;;5029675;28;20203;-82
2020/12/10 13:55:18;;;;;;;2.97;2.67;;;;;;;;;;5021014;28;20230;-83
2020/12/10 13:58:22;;;;;;;5.97;2.50;;;;;;;;;;5020952;28;20196;-83
2020/12/10 14:00:48;;;;;;;5.70;2.72;;;;;;;;;;5021738;28;20337;-81
2020/12/10 14:03:14;;;;;;;4.13;3.03;;;;;;;;;;5022987;28;20197;-82
2020/12/10 14:05:59;;;;;;;4.95;2.50;;;;;;;;;;5019764;28;20178;-82
2020/12/10 14:08:45;;;;;;;4.68;2.95;;;;;;;;;;5021655;28;20174;-81
2020/12/10 14:11:11;;;;;;;2.85;2.38;;;;;;;;;;5025858;28;20271;-79
2020/12/10 14:13:37;;;;;;;3.28;2.55;;;;;;;;;;5017530;28;20193;-79
2020/12/10 14:16:05;;;;;;;3.65;2.30;;;;;;;;;;5020892;28;20192;-78
2020/12/10 14:18:32;;;;;;;2.95;2.40;;;;;;;;;;5019850;28;20182;-81
2020/12/10 14:20:58;;;;;;;4.05;2.20;;;;;;;;;;5026640;28;20178;-80
2020/12/10 14:23:24;;;;;;;2.67;2.30;;;;;;;;;;5018579;28;20286;-82
2020/12/10 14:25:50;;;;;;;5.25;2.63;;;;;;;;;;5018937;28;20186;-82
2020/12/10 14:28:16;;;;;;;4.40;3.03;;;;;;;;;;5034462;28;20191;-80
2020/12/10 14:30:42;;;;;;;4.67;3.33;;;;;;;;;;5024163;28;20183;-79
2020/12/10 14:33:08;;;;;;;3.10;2.73;;;;;;;;;;5019598;28;20875;-82
2020/12/10 14:35:34;;;;;;;3.78;2.60;;;;;;;;;;5024307;28;20510;-82
2020/12/10 14:38:00;;;;;;;4.05;2.90;;;;;;;;;;5022416;28;20214;-80
2020/12/10 14:40:26;;;;;;;4.97;3.40;;;;;;;;;;5023418;28;20186;-79
2020/12/10 14:42:52;;;;;;;4.60;3.25;;;;;;;;;;5015827;28;20186;-81
2020/12/10 14:45:18;;;;;;;7.23;3.57;;;;;;;;;;5019358;28;20196;-81
2020/12/10 14:47:49;;;;;;;4.88;3.67;;;;;;;;;;5013835;28;20441;-79
2020/12/10 14:50:35;;;;;;;4.32;3.08;;;;;;;;;;5018594;28;20194;-79
2020/12/10 14:53:01;;;;;;;4.32;3.47;;;;;;;;;;5018291;28;20270;-81